Terminal Aerodrome Forecast
Issued by NWS Tulsa, OK

Current Version | Previous Version | Text Only | Print | Product List | Glossary On
Versions: 1 2 3 4 5 6 7 8 9 10 11 12
286
FTUS44 KTSA 022337
TAFTUL
TAF
KTUL 022337Z 0300/0324 08005KT P6SM SCT070 BKN150
     FM030300 06005KT P6SM BKN070
     FM030800 07005KT P6SM VCSH OVC050
      TEMPO 0315/0319 5SM -RA BKN025
     FM031900 08007KT 4SM -RA BR BKN012=

USA.gov is the U.S. government's official web portal to all federal, state and local government web resources and services.